createdAt,value
2019-01-30T00:00:39.780Z,868.07
2019-01-30T00:01:39.762Z,868.09
2019-01-30T00:02:39.742Z,868.05
2019-01-30T00:03:39.718Z,868.02
2019-01-30T00:04:39.695Z,868.05
2019-01-30T00:05:39.674Z,868.07
2019-01-30T00:06:39.654Z,868.08
2019-01-30T00:07:39.630Z,868.03
2019-01-30T00:08:39.610Z,868.06
2019-01-30T00:09:39.584Z,868.08
2019-01-30T00:10:39.569Z,868.07
2019-01-30T00:11:39.548Z,868.07
2019-01-30T00:12:39.537Z,868.02
2019-01-30T00:13:39.503Z,868.02
2019-01-30T00:14:39.480Z,868.04
2019-01-30T00:15:39.464Z,868.06
2019-01-30T00:16:39.438Z,868.06
2019-01-30T00:17:39.419Z,868.09
2019-01-30T00:18:39.391Z,868.04
2019-01-30T00:19:39.372Z,868.02
2019-01-30T00:20:39.357Z,868.01
2019-01-30T00:21:39.338Z,868.04
2019-01-30T00:22:39.309Z,867.93
2019-01-30T00:23:39.291Z,867.96
2019-01-30T00:24:39.275Z,867.93
2019-01-30T00:25:39.244Z,867.88
2019-01-30T00:26:39.228Z,867.86
2019-01-30T00:27:39.208Z,867.82
2019-01-30T00:28:39.181Z,867.81
2019-01-30T00:29:39.158Z,867.93
2019-01-30T00:30:39.142Z,867.82
2019-01-30T00:31:39.119Z,867.79
2019-01-30T00:32:39.099Z,867.78
2019-01-30T00:33:39.079Z,867.73
2019-01-30T00:34:39.058Z,867.64
2019-01-30T00:35:39.036Z,867.64
2019-01-30T00:36:39.014Z,867.61
2019-01-30T00:37:38.995Z,867.65
2019-01-30T00:38:38.972Z,867.65
2019-01-30T00:39:38.954Z,867.72
2019-01-30T00:40:38.928Z,867.68
2019-01-30T00:41:38.908Z,867.65
2019-01-30T00:42:38.886Z,867.60
2019-01-30T00:43:38.863Z,867.58
2019-01-30T00:44:38.848Z,867.59
2019-01-30T00:45:38.821Z,867.62
2019-01-30T00:46:38.804Z,867.61
2019-01-30T00:47:38.782Z,867.55
2019-01-30T00:48:38.758Z,867.55
2019-01-30T00:49:38.746Z,867.64
2019-01-30T00:50:38.718Z,867.61
2019-01-30T00:51:38.696Z,867.56
2019-01-30T00:52:38.676Z,867.58
2019-01-30T00:53:38.652Z,867.62
2019-01-30T00:54:38.632Z,867.61
2019-01-30T00:55:38.614Z,867.59
2019-01-30T00:56:38.592Z,867.71
2019-01-30T00:57:38.573Z,867.67
2019-01-30T00:58:38.545Z,867.62
2019-01-30T00:59:38.528Z,867.63
2019-01-30T01:00:38.506Z,867.63
2019-01-30T01:01:38.488Z,867.60
2019-01-30T01:02:38.466Z,867.57
2019-01-30T01:03:38.454Z,867.58
2019-01-30T01:04:38.422Z,867.59
2019-01-30T01:05:38.405Z,867.60
2019-01-30T01:06:38.380Z,867.61
2019-01-30T01:07:38.358Z,867.61
2019-01-30T01:08:38.336Z,867.61
2019-01-30T01:09:38.316Z,867.59
2019-01-30T01:10:38.298Z,867.54
2019-01-30T01:11:38.274Z,867.57
2019-01-30T01:12:38.254Z,867.58
2019-01-30T01:13:38.238Z,867.55
2019-01-30T01:14:38.215Z,867.61
2019-01-30T01:15:38.188Z,867.59
2019-01-30T01:16:38.169Z,867.52
2019-01-30T01:17:38.150Z,867.56
2019-01-30T01:18:38.130Z,867.60
2019-01-30T01:19:38.128Z,867.58
2019-01-30T01:20:38.086Z,867.57
2019-01-30T01:21:38.062Z,867.58
2019-01-30T01:22:38.048Z,867.59
2019-01-30T01:23:38.027Z,867.59
2019-01-30T01:24:38.008Z,867.59
2019-01-30T01:25:37.981Z,867.56
2019-01-30T01:26:37.958Z,867.52
2019-01-30T01:27:37.938Z,867.55
2019-01-30T01:28:37.921Z,867.53
2019-01-30T01:29:37.900Z,867.56
2019-01-30T01:30:37.876Z,867.47
2019-01-30T01:31:37.854Z,867.43
2019-01-30T01:32:37.837Z,867.45
2019-01-30T01:33:37.812Z,867.40
2019-01-30T01:34:37.798Z,867.36
2019-01-30T01:35:37.774Z,867.40
2019-01-30T01:36:37.755Z,867.32
2019-01-30T01:37:37.732Z,867.37
2019-01-30T01:38:37.709Z,867.35
2019-01-30T01:39:37.690Z,867.41
2019-01-30T01:40:37.670Z,867.38
2019-01-30T01:41:37.649Z,867.39
2019-01-30T01:42:37.627Z,867.37
2019-01-30T01:43:37.600Z,867.34
2019-01-30T01:44:37.586Z,867.38
2019-01-30T01:45:37.566Z,867.34
2019-01-30T01:46:37.536Z,867.33
2019-01-30T01:47:37.523Z,867.33
2019-01-30T01:48:37.497Z,867.32
2019-01-30T01:49:37.476Z,867.29
2019-01-30T01:50:37.454Z,867.27
2019-01-30T01:51:37.438Z,867.27
2019-01-30T01:52:37.416Z,867.22
2019-01-30T01:53:37.396Z,867.20
2019-01-30T01:54:37.375Z,867.20
2019-01-30T01:55:37.354Z,867.19
2019-01-30T01:56:37.333Z,867.17
2019-01-30T01:57:37.319Z,867.20
2019-01-30T01:58:37.292Z,867.16
2019-01-30T01:59:37.271Z,867.09
2019-01-30T02:00:37.249Z,867.07
2019-01-30T02:01:37.224Z,867.10
2019-01-30T02:02:37.209Z,867.02
2019-01-30T02:03:37.190Z,867.03
2019-01-30T02:04:37.167Z,866.99
2019-01-30T02:05:37.148Z,866.98
2019-01-30T02:06:37.128Z,866.96
2019-01-30T02:07:37.108Z,866.89
2019-01-30T02:08:37.079Z,866.98
2019-01-30T02:09:37.058Z,866.95
2019-01-30T02:10:37.045Z,866.91
2019-01-30T02:11:37.029Z,866.91
2019-01-30T02:12:37.001Z,866.93
2019-01-30T02:13:36.976Z,866.83
2019-01-30T02:14:36.965Z,866.82
2019-01-30T02:15:36.933Z,866.80
2019-01-30T02:16:36.915Z,866.82
2019-01-30T02:17:36.895Z,866.81
2019-01-30T02:18:36.878Z,866.85
2019-01-30T02:19:36.854Z,866.83
2019-01-30T02:20:36.836Z,866.84
2019-01-30T02:21:36.813Z,866.83
2019-01-30T02:22:36.792Z,866.84
2019-01-30T02:23:36.768Z,866.85
2019-01-30T02:24:36.753Z,866.84
2019-01-30T02:25:36.738Z,866.89
2019-01-30T02:26:36.713Z,866.83
2019-01-30T02:27:36.696Z,866.85
2019-01-30T02:28:36.675Z,866.81
2019-01-30T02:29:36.650Z,866.78
2019-01-30T02:30:46.702Z,866.78
2019-01-30T02:31:36.607Z,866.79
2019-01-30T02:32:36.592Z,866.80
2019-01-30T02:33:36.574Z,866.78
2019-01-30T02:34:36.540Z,866.78
2019-01-30T02:35:36.528Z,866.80
2019-01-30T02:36:36.517Z,866.79
2019-01-30T02:37:36.487Z,866.72
2019-01-30T02:38:36.462Z,866.67
2019-01-30T02:39:36.441Z,866.69
2019-01-30T02:40:36.423Z,866.69
2019-01-30T02:41:36.398Z,866.73
2019-01-30T02:42:36.389Z,866.69
2019-01-30T02:43:36.363Z,866.68
2019-01-30T02:44:36.344Z,866.63
2019-01-30T02:45:36.336Z,866.59
2019-01-30T02:46:36.297Z,866.59
2019-01-30T02:47:36.283Z,866.57
2019-01-30T02:48:36.262Z,866.58
2019-01-30T02:49:36.232Z,866.57
2019-01-30T02:50:36.215Z,866.57
2019-01-30T02:51:36.198Z,866.57
2019-01-30T02:52:36.183Z,866.53
2019-01-30T02:53:36.160Z,866.58
2019-01-30T02:54:36.138Z,866.59
2019-01-30T02:55:36.114Z,866.58
2019-01-30T02:56:36.095Z,866.56
2019-01-30T02:57:36.075Z,866.54
2019-01-30T02:58:36.051Z,866.56
2019-01-30T02:59:36.035Z,866.56
2019-01-30T03:00:36.010Z,866.55
2019-01-30T03:01:35.985Z,866.56
2019-01-30T03:02:35.975Z,866.52
2019-01-30T03:03:35.948Z,866.52
2019-01-30T03:04:35.951Z,866.51
2019-01-30T03:05:35.943Z,866.47
2019-01-30T03:06:35.893Z,866.54
2019-01-30T03:07:35.877Z,866.45
2019-01-30T03:08:35.849Z,866.46
2019-01-30T03:09:35.828Z,866.44
2019-01-30T03:10:35.809Z,866.45
2019-01-30T03:11:35.787Z,866.44
2019-01-30T03:12:35.777Z,866.39
2019-01-30T03:13:35.742Z,866.39
2019-01-30T03:14:35.731Z,866.43
2019-01-30T03:15:35.735Z,866.41
2019-01-30T03:16:35.681Z,866.41
2019-01-30T03:17:35.668Z,866.44
2019-01-30T03:18:35.653Z,866.41
2019-01-30T03:19:35.619Z,866.40
2019-01-30T03:20:35.599Z,866.39
2019-01-30T03:21:35.584Z,866.40
2019-01-30T03:22:35.563Z,866.40
2019-01-30T03:23:35.539Z,866.41
2019-01-30T03:24:35.522Z,866.42
2019-01-30T03:25:35.499Z,866.39
2019-01-30T03:26:35.479Z,866.44
2019-01-30T03:27:35.456Z,866.45
2019-01-30T03:28:35.442Z,866.44
2019-01-30T03:29:35.419Z,866.45
2019-01-30T03:30:35.399Z,866.44
2019-01-30T03:31:35.381Z,866.45
2019-01-30T03:32:35.366Z,866.43
2019-01-30T03:33:35.338Z,866.42
2019-01-30T03:34:35.322Z,866.43
2019-01-30T03:35:35.298Z,866.42
2019-01-30T03:36:35.277Z,866.39
2019-01-30T03:37:35.256Z,866.43
2019-01-30T03:38:35.238Z,866.43
2019-01-30T03:39:35.218Z,866.39
2019-01-30T03:40:35.191Z,866.38
2019-01-30T03:41:35.176Z,866.35
2019-01-30T03:42:35.145Z,866.38
2019-01-30T03:43:35.128Z,866.36
2019-01-30T03:44:35.113Z,866.31
2019-01-30T03:45:35.092Z,866.35
2019-01-30T03:46:35.070Z,866.30
2019-01-30T03:47:35.048Z,866.30
2019-01-30T03:48:35.030Z,866.29
2019-01-30T03:49:35.004Z,866.30
2019-01-30T03:50:34.991Z,866.35
2019-01-30T03:51:34.976Z,866.38
2019-01-30T03:52:34.958Z,866.34
2019-01-30T03:53:34.923Z,866.36
2019-01-30T03:54:34.909Z,866.31
2019-01-30T03:55:34.887Z,866.32
2019-01-30T03:56:34.865Z,866.30
2019-01-30T03:57:34.843Z,866.28
2019-01-30T03:58:34.832Z,866.23
2019-01-30T03:59:34.805Z,866.23
2019-01-30T04:00:34.791Z,866.22
2019-01-30T04:01:34.763Z,866.21
2019-01-30T04:02:34.740Z,866.15
2019-01-30T04:03:34.716Z,866.13
2019-01-30T04:04:34.697Z,866.15
2019-01-30T04:05:34.680Z,866.13
2019-01-30T04:06:34.660Z,866.14
2019-01-30T04:07:34.643Z,866.12
2019-01-30T04:08:34.619Z,866.07
2019-01-30T04:09:34.599Z,866.08
2019-01-30T04:10:34.575Z,866.03
2019-01-30T04:11:34.561Z,866.11
2019-01-30T04:12:34.536Z,866.09
2019-01-30T04:13:34.506Z,866.12
2019-01-30T04:14:34.495Z,866.04
2019-01-30T04:15:34.472Z,866.08
2019-01-30T04:16:34.455Z,866.10
2019-01-30T04:17:34.433Z,866.10
2019-01-30T04:18:34.408Z,866.07
2019-01-30T04:19:34.389Z,866.04
2019-01-30T04:20:34.367Z,866.03
2019-01-30T04:21:34.350Z,866.04
2019-01-30T04:22:34.326Z,866.03
2019-01-30T04:23:34.304Z,865.95
2019-01-30T04:24:34.286Z,865.96
2019-01-30T04:25:34.267Z,865.93
2019-01-30T04:26:34.247Z,865.88
2019-01-30T04:27:34.226Z,865.88
2019-01-30T04:28:34.204Z,865.88
2019-01-30T04:29:34.182Z,865.92
2019-01-30T04:30:34.159Z,865.86
2019-01-30T04:31:38.241Z,865.87
2019-01-30T04:32:34.127Z,865.86
2019-01-30T04:33:34.099Z,865.85
2019-01-30T04:34:34.086Z,865.86
2019-01-30T04:35:34.060Z,865.82
2019-01-30T04:36:34.047Z,865.81
2019-01-30T04:37:34.017Z,865.77
2019-01-30T04:38:33.997Z,865.76
2019-01-30T04:39:33.974Z,865.77
2019-01-30T04:40:33.956Z,865.71
2019-01-30T04:41:33.935Z,865.76
2019-01-30T04:42:33.914Z,865.75
2019-01-30T04:43:33.896Z,865.74
2019-01-30T04:44:33.872Z,865.77
2019-01-30T04:45:33.864Z,865.76
2019-01-30T04:46:33.833Z,865.78
2019-01-30T04:47:33.812Z,865.77
2019-01-30T04:48:33.791Z,865.78
2019-01-30T04:49:33.766Z,865.72
2019-01-30T04:50:33.744Z,865.68
2019-01-30T04:51:33.730Z,865.73
2019-01-30T04:52:33.708Z,865.74
2019-01-30T04:53:33.687Z,865.70
2019-01-30T04:54:33.667Z,865.69
2019-01-30T04:55:33.641Z,865.65
2019-01-30T04:56:33.623Z,865.65
2019-01-30T04:57:33.603Z,865.62
2019-01-30T04:58:33.586Z,865.57
2019-01-30T04:59:33.561Z,865.55
2019-01-30T05:00:33.546Z,865.57
2019-01-30T05:01:33.522Z,865.59
2019-01-30T05:02:33.500Z,865.57
2019-01-30T05:03:33.479Z,865.51
2019-01-30T05:04:33.460Z,865.54
2019-01-30T05:05:33.441Z,865.59
2019-01-30T05:06:33.417Z,865.59
2019-01-30T05:07:33.403Z,865.57
2019-01-30T05:08:33.377Z,865.55
2019-01-30T05:09:33.354Z,865.53
2019-01-30T05:10:33.338Z,865.56
2019-01-30T05:11:33.312Z,865.53
2019-01-30T05:12:33.294Z,865.57
2019-01-30T05:13:33.275Z,865.55
2019-01-30T05:14:33.255Z,865.53
2019-01-30T05:15:33.228Z,865.49
2019-01-30T05:16:33.209Z,865.53
2019-01-30T05:17:33.191Z,865.47
2019-01-30T05:18:33.172Z,865.41
2019-01-30T05:19:33.150Z,865.46
2019-01-30T05:20:33.127Z,865.49
2019-01-30T05:21:33.109Z,865.45
2019-01-30T05:22:33.082Z,865.45
2019-01-30T05:23:33.069Z,865.44
2019-01-30T05:24:33.049Z,865.43
2019-01-30T05:25:33.027Z,865.42
2019-01-30T05:26:33.007Z,865.44
2019-01-30T05:27:32.983Z,865.48
2019-01-30T05:28:32.966Z,865.43
2019-01-30T05:29:32.990Z,865.42
2019-01-30T05:30:32.920Z,865.43
2019-01-30T05:31:32.901Z,865.39
2019-01-30T05:32:32.880Z,865.39
2019-01-30T05:33:32.859Z,865.39
2019-01-30T05:34:32.832Z,865.38
2019-01-30T05:35:32.816Z,865.32
2019-01-30T05:36:32.799Z,865.35
2019-01-30T05:37:32.781Z,865.36
2019-01-30T05:38:32.756Z,865.32
2019-01-30T05:39:32.734Z,865.35
2019-01-30T05:40:32.718Z,865.35
2019-01-30T05:41:32.696Z,865.35
2019-01-30T05:42:32.675Z,865.33
2019-01-30T05:43:32.651Z,865.27
2019-01-30T05:44:32.631Z,865.33
2019-01-30T05:45:32.611Z,865.30
2019-01-30T05:46:32.589Z,865.32
2019-01-30T05:47:32.567Z,865.27
2019-01-30T05:48:32.552Z,865.31
2019-01-30T05:49:32.524Z,865.29
2019-01-30T05:50:32.508Z,865.30
2019-01-30T05:51:32.488Z,865.35
2019-01-30T05:52:32.466Z,865.38
2019-01-30T05:53:32.448Z,865.41
2019-01-30T05:54:32.426Z,865.35
2019-01-30T05:55:32.412Z,865.33
2019-01-30T05:56:32.383Z,865.35
2019-01-30T05:57:32.370Z,865.34
2019-01-30T05:58:32.343Z,865.34
2019-01-30T05:59:32.325Z,865.35
2019-01-30T06:00:32.303Z,865.34
2019-01-30T06:01:32.284Z,865.34
2019-01-30T06:02:32.263Z,865.31
2019-01-30T06:03:32.249Z,865.33
2019-01-30T06:04:32.217Z,865.29
2019-01-30T06:05:32.196Z,865.32
2019-01-30T06:06:32.191Z,865.33
2019-01-30T06:07:32.160Z,865.37
2019-01-30T06:08:32.132Z,865.33
2019-01-30T06:09:32.118Z,865.40
2019-01-30T06:10:32.097Z,865.37
2019-01-30T06:11:32.070Z,865.34
2019-01-30T06:12:32.047Z,865.35
2019-01-30T06:13:32.035Z,865.38
2019-01-30T06:14:32.119Z,865.36
2019-01-30T06:15:31.995Z,865.33
2019-01-30T06:16:31.974Z,865.39
2019-01-30T06:17:31.950Z,865.38
2019-01-30T06:18:31.931Z,865.36
2019-01-30T06:19:31.914Z,865.37
2019-01-30T06:20:31.887Z,865.35
2019-01-30T06:21:31.876Z,865.35
2019-01-30T06:22:31.844Z,865.39
2019-01-30T06:23:31.830Z,865.33
2019-01-30T06:24:31.806Z,865.38
2019-01-30T06:25:31.791Z,865.40
2019-01-30T06:26:31.766Z,865.39
2019-01-30T06:27:31.741Z,865.40
2019-01-30T06:28:31.720Z,865.41
2019-01-30T06:29:31.702Z,865.41
2019-01-30T06:30:31.683Z,865.42
2019-01-30T06:31:31.665Z,865.39
2019-01-30T06:32:31.640Z,865.43
2019-01-30T06:33:31.622Z,865.45
2019-01-30T06:34:31.598Z,865.41
2019-01-30T06:35:31.580Z,865.40
2019-01-30T06:36:31.557Z,865.43
2019-01-30T06:37:31.533Z,865.43
2019-01-30T06:38:31.515Z,865.46
2019-01-30T06:39:31.489Z,865.44
2019-01-30T06:40:31.475Z,865.46
2019-01-30T06:41:31.451Z,865.44
2019-01-30T06:42:31.433Z,865.48
2019-01-30T06:43:31.419Z,865.49
2019-01-30T06:44:31.389Z,865.49
2019-01-30T06:45:31.378Z,865.49
2019-01-30T06:46:31.350Z,865.49
2019-01-30T06:47:31.332Z,865.53
2019-01-30T06:48:31.307Z,865.50
2019-01-30T06:49:31.286Z,865.50
2019-01-30T06:50:31.265Z,865.46
2019-01-30T06:51:31.249Z,865.45
2019-01-30T06:52:31.224Z,865.46
2019-01-30T06:53:31.206Z,865.44
2019-01-30T06:54:31.183Z,865.51
2019-01-30T06:55:31.161Z,865.50
2019-01-30T06:56:31.141Z,865.50
2019-01-30T06:57:31.118Z,865.52
2019-01-30T06:58:31.097Z,865.54
2019-01-30T06:59:31.080Z,865.55
2019-01-30T07:00:31.066Z,865.54
2019-01-30T07:01:31.035Z,865.54
2019-01-30T07:02:32.425Z,865.56
2019-01-30T07:03:31.003Z,865.57
2019-01-30T07:04:30.975Z,865.59
2019-01-30T07:05:30.956Z,865.58
2019-01-30T07:06:30.937Z,865.61
2019-01-30T07:07:30.910Z,865.60
2019-01-30T07:08:30.893Z,865.64
2019-01-30T07:09:30.874Z,865.66
2019-01-30T07:10:30.850Z,865.69
2019-01-30T07:11:30.833Z,865.71
2019-01-30T07:12:30.814Z,865.67
2019-01-30T07:13:30.792Z,865.67
2019-01-30T07:14:30.772Z,865.69
2019-01-30T07:15:30.752Z,865.73
2019-01-30T07:16:30.726Z,865.70
2019-01-30T07:17:30.707Z,865.70
2019-01-30T07:18:30.687Z,865.72
2019-01-30T07:19:30.668Z,865.72
2019-01-30T07:20:31.304Z,865.72
2019-01-30T07:21:30.628Z,865.70
2019-01-30T07:22:30.608Z,865.71
2019-01-30T07:23:30.664Z,865.73
2019-01-30T07:24:30.564Z,865.66
2019-01-30T07:25:30.546Z,865.73
2019-01-30T07:26:30.526Z,865.75
2019-01-30T07:27:30.500Z,865.83
2019-01-30T07:28:30.483Z,865.84
2019-01-30T07:29:30.461Z,865.83
2019-01-30T07:30:30.444Z,865.80
2019-01-30T07:31:30.425Z,865.79
2019-01-30T07:32:30.402Z,865.78
2019-01-30T07:33:30.380Z,865.78
2019-01-30T07:34:30.358Z,865.81
2019-01-30T07:35:30.338Z,865.77
2019-01-30T07:36:30.318Z,865.81
2019-01-30T07:37:30.296Z,865.80
2019-01-30T07:38:30.276Z,865.81
2019-01-30T07:39:30.254Z,865.81
2019-01-30T07:40:30.234Z,865.77
2019-01-30T07:41:30.222Z,865.75
2019-01-30T07:42:30.206Z,865.76
2019-01-30T07:43:30.181Z,865.77
2019-01-30T07:44:30.155Z,865.76
2019-01-30T07:45:30.136Z,865.78
2019-01-30T07:46:30.179Z,865.78
2019-01-30T07:47:30.101Z,865.77
2019-01-30T07:48:30.075Z,865.79
2019-01-30T07:49:30.052Z,865.77
2019-01-30T07:50:30.036Z,865.76
2019-01-30T07:51:30.014Z,865.77
2019-01-30T07:52:32.672Z,865.79
2019-01-30T07:53:29.978Z,865.82
2019-01-30T07:54:29.954Z,865.82
2019-01-30T07:55:29.936Z,865.83
2019-01-30T07:56:29.919Z,865.81
2019-01-30T07:57:29.897Z,865.77
2019-01-30T07:58:29.875Z,865.78
2019-01-30T07:59:31.979Z,865.81
2019-01-30T08:00:29.841Z,865.81
2019-01-30T08:01:29.813Z,865.78
2019-01-30T08:02:29.804Z,865.81
2019-01-30T08:03:29.777Z,865.79
2019-01-30T08:04:29.758Z,865.81
2019-01-30T08:05:29.740Z,865.85
2019-01-30T08:06:29.722Z,865.82
2019-01-30T08:07:29.693Z,865.86
2019-01-30T08:08:29.680Z,865.86
2019-01-30T08:09:29.650Z,865.83
2019-01-30T08:10:29.634Z,865.81
2019-01-30T08:11:29.612Z,865.83
2019-01-30T08:12:29.588Z,865.83
2019-01-30T08:13:29.573Z,865.83
2019-01-30T08:14:29.559Z,865.85
2019-01-30T08:15:29.533Z,865.85
2019-01-30T08:16:29.515Z,865.87
2019-01-30T08:17:29.495Z,865.86
2019-01-30T08:18:29.477Z,865.86
2019-01-30T08:19:29.452Z,865.88
2019-01-30T08:20:29.435Z,865.86
2019-01-30T08:21:29.421Z,865.85
2019-01-30T08:22:29.398Z,865.88
2019-01-30T08:23:29.630Z,865.87
2019-01-30T08:24:29.470Z,865.90
2019-01-30T08:25:29.540Z,865.94
2019-01-30T08:26:29.316Z,865.95
2019-01-30T08:27:29.522Z,865.92
2019-01-30T08:28:29.302Z,865.95
2019-01-30T08:29:29.574Z,865.93
2019-01-30T08:30:29.469Z,865.95
2019-01-30T08:31:29.574Z,865.95
2019-01-30T08:32:29.410Z,865.95
2019-01-30T08:33:29.218Z,865.96
2019-01-30T08:34:29.156Z,865.94
2019-01-30T08:35:29.148Z,865.95
2019-01-30T08:36:29.119Z,865.94
2019-01-30T08:37:29.103Z,865.95
2019-01-30T08:38:29.085Z,866.01
2019-01-30T08:39:29.061Z,866.01
2019-01-30T08:40:29.039Z,866.02
2019-01-30T08:41:29.027Z,866.01
2019-01-30T08:42:29.003Z,866.08
2019-01-30T08:43:28.986Z,866.11
2019-01-30T08:44:28.971Z,866.06
2019-01-30T08:45:28.946Z,866.05
2019-01-30T08:46:28.924Z,866.05
2019-01-30T08:47:28.910Z,866.10
2019-01-30T08:48:30.253Z,866.05
2019-01-30T08:49:28.868Z,866.03
2019-01-30T08:50:28.929Z,866.00
2019-01-30T08:51:28.830Z,865.98
2019-01-30T08:52:28.812Z,865.98
2019-01-30T08:53:28.793Z,866.00
2019-01-30T08:54:28.771Z,865.97
2019-01-30T08:55:28.759Z,865.97
2019-01-30T08:56:28.735Z,865.98
2019-01-30T08:57:28.718Z,865.95
2019-01-30T08:58:28.703Z,866.03
2019-01-30T08:59:28.680Z,866.01
2019-01-30T09:00:28.655Z,866.01
2019-01-30T09:01:28.636Z,866.04
2019-01-30T09:02:28.620Z,866.01
2019-01-30T09:03:28.600Z,866.00
2019-01-30T09:04:28.578Z,866.02
2019-01-30T09:05:28.560Z,865.99
2019-01-30T09:06:28.543Z,865.98
2019-01-30T09:07:28.523Z,865.97
2019-01-30T09:08:28.501Z,865.97
2019-01-30T09:09:28.488Z,865.96
2019-01-30T09:10:28.470Z,865.98
2019-01-30T09:11:28.446Z,865.99
2019-01-30T09:12:28.428Z,865.99
2019-01-30T09:13:28.414Z,865.98
2019-01-30T09:14:28.395Z,865.99
2019-01-30T09:15:28.376Z,865.98
2019-01-30T09:16:28.356Z,865.99
2019-01-30T09:17:28.335Z,866.00
2019-01-30T09:18:28.318Z,865.99
2019-01-30T09:19:28.298Z,866.02
2019-01-30T09:20:28.281Z,865.99
2019-01-30T09:21:28.263Z,866.01
2019-01-30T09:22:28.245Z,866.02
2019-01-30T09:23:28.227Z,865.97
2019-01-30T09:24:28.217Z,866.02
2019-01-30T09:25:28.188Z,866.03
2019-01-30T09:26:28.170Z,866.00
2019-01-30T09:27:28.154Z,866.02
2019-01-30T09:28:28.135Z,866.01
2019-01-30T09:29:28.117Z,866.03
2019-01-30T09:30:28.097Z,866.03
2019-01-30T09:31:28.078Z,866.03
2019-01-30T09:32:28.062Z,866.04
2019-01-30T09:33:28.042Z,866.04
2019-01-30T09:34:28.023Z,866.07
2019-01-30T09:35:28.010Z,866.06
2019-01-30T09:36:27.989Z,866.04
2019-01-30T09:37:27.974Z,866.04
2019-01-30T09:38:27.965Z,866.08
2019-01-30T09:39:27.960Z,866.05
2019-01-30T09:40:27.920Z,866.06
2019-01-30T09:41:27.899Z,866.05
2019-01-30T09:42:27.881Z,866.08
2019-01-30T09:43:27.869Z,866.11
2019-01-30T09:44:27.840Z,866.11
2019-01-30T09:45:27.827Z,866.17
2019-01-30T09:46:27.811Z,866.17
2019-01-30T09:47:27.812Z,866.19
2019-01-30T09:48:27.785Z,866.20
2019-01-30T09:49:27.854Z,866.24
2019-01-30T09:50:27.734Z,866.25
2019-01-30T09:51:27.725Z,866.27
2019-01-30T09:52:27.705Z,866.32
2019-01-30T09:53:27.689Z,866.31
2019-01-30T09:54:27.682Z,866.32
2019-01-30T09:55:27.655Z,866.29
2019-01-30T09:56:27.632Z,866.32
2019-01-30T09:57:27.622Z,866.36
2019-01-30T09:58:27.601Z,866.35
2019-01-30T09:59:27.585Z,866.36
2019-01-30T10:00:27.567Z,866.38
2019-01-30T10:01:27.547Z,866.37
2019-01-30T10:02:27.531Z,866.39
2019-01-30T10:03:36.121Z,866.39
2019-01-30T10:04:27.507Z,866.37
2019-01-30T10:05:27.481Z,866.40
2019-01-30T10:06:27.459Z,866.36
2019-01-30T10:07:27.440Z,866.36
2019-01-30T10:08:27.432Z,866.38
2019-01-30T10:09:27.412Z,866.37
2019-01-30T10:10:27.395Z,866.40
2019-01-30T10:11:27.374Z,866.44
2019-01-30T10:12:27.362Z,866.46
2019-01-30T10:13:27.339Z,866.45
2019-01-30T10:14:27.319Z,866.43
2019-01-30T10:15:27.307Z,866.46
2019-01-30T10:16:27.291Z,866.46
2019-01-30T10:17:27.272Z,866.48
2019-01-30T10:18:27.263Z,866.49
2019-01-30T10:19:27.240Z,866.47
2019-01-30T10:20:27.222Z,866.50
2019-01-30T10:21:27.207Z,866.50
2019-01-30T10:22:27.196Z,866.51
2019-01-30T10:23:27.180Z,866.50
2019-01-30T10:24:29.038Z,866.51
2019-01-30T10:25:27.131Z,866.52
2019-01-30T10:26:27.122Z,866.51
2019-01-30T10:27:27.104Z,866.50
2019-01-30T10:28:27.083Z,866.50
2019-01-30T10:29:27.073Z,866.52
2019-01-30T10:30:27.055Z,866.53
2019-01-30T10:31:27.049Z,866.54
2019-01-30T10:32:27.023Z,866.53
2019-01-30T10:33:26.997Z,866.53
2019-01-30T10:34:26.987Z,866.56
2019-01-30T10:35:26.970Z,866.53
2019-01-30T10:36:26.971Z,866.52
2019-01-30T10:37:26.934Z,866.53
2019-01-30T10:38:26.921Z,866.53
2019-01-30T10:39:26.904Z,866.52
2019-01-30T10:40:26.896Z,866.55
2019-01-30T10:41:26.870Z,866.55
2019-01-30T10:42:26.852Z,866.56
2019-01-30T10:43:26.849Z,866.56
2019-01-30T10:44:26.820Z,866.54
2019-01-30T10:45:26.803Z,866.59
2019-01-30T10:46:26.782Z,866.59
2019-01-30T10:47:26.782Z,866.59
2019-01-30T10:48:26.759Z,866.58
2019-01-30T10:49:26.746Z,866.58
2019-01-30T10:50:26.727Z,866.57
2019-01-30T10:51:26.705Z,866.56
2019-01-30T10:52:26.688Z,866.56
2019-01-30T10:53:26.679Z,866.54
2019-01-30T10:54:26.662Z,866.53
2019-01-30T10:55:26.647Z,866.54
2019-01-30T10:56:26.710Z,866.59
2019-01-30T10:57:26.610Z,866.58
2019-01-30T10:58:26.592Z,866.57
2019-01-30T10:59:26.794Z,866.57
2019-01-30T11:00:26.564Z,866.56
2019-01-30T11:01:26.550Z,866.54
2019-01-30T11:02:26.531Z,866.57
2019-01-30T11:03:26.519Z,866.52
2019-01-30T11:04:26.499Z,866.52
2019-01-30T11:05:26.484Z,866.52
2019-01-30T11:06:26.506Z,866.51
2019-01-30T11:07:26.457Z,866.53
2019-01-30T11:08:26.436Z,866.54
2019-01-30T11:09:26.419Z,866.55
2019-01-30T11:10:26.401Z,866.54
2019-01-30T11:11:26.385Z,866.56
2019-01-30T11:12:26.369Z,866.57
2019-01-30T11:13:26.353Z,866.58
2019-01-30T11:14:26.341Z,866.52
2019-01-30T11:15:26.329Z,866.59
2019-01-30T11:16:26.306Z,866.54
2019-01-30T11:17:26.292Z,866.54
2019-01-30T11:18:26.281Z,866.55
2019-01-30T11:19:26.254Z,866.56
2019-01-30T11:20:26.247Z,866.56
2019-01-30T11:21:26.225Z,866.56
2019-01-30T11:22:26.213Z,866.53
2019-01-30T11:23:26.196Z,866.53
2019-01-30T11:24:26.188Z,866.51
2019-01-30T11:25:26.173Z,866.52
2019-01-30T11:26:26.153Z,866.46
2019-01-30T11:27:26.152Z,866.47
2019-01-30T11:28:26.116Z,866.44
2019-01-30T11:29:26.103Z,866.41
2019-01-30T11:30:26.090Z,866.41
2019-01-30T11:31:26.073Z,866.43
2019-01-30T11:32:26.066Z,866.41
2019-01-30T11:33:26.041Z,866.39
2019-01-30T11:34:26.025Z,866.36
2019-01-30T11:35:26.012Z,866.37
2019-01-30T11:36:25.993Z,866.37
2019-01-30T11:37:25.983Z,866.37
2019-01-30T11:38:25.976Z,866.42
2019-01-30T11:39:25.950Z,866.42
2019-01-30T11:40:25.933Z,866.43
2019-01-30T11:41:25.921Z,866.45
2019-01-30T11:42:25.908Z,866.45
2019-01-30T11:43:25.890Z,866.46
2019-01-30T11:44:27.877Z,866.46
2019-01-30T11:45:25.853Z,866.44
2019-01-30T11:46:25.845Z,866.45
2019-01-30T11:47:25.827Z,866.45
2019-01-30T11:48:25.810Z,866.43
2019-01-30T11:49:25.803Z,866.44
2019-01-30T11:50:25.785Z,866.43
2019-01-30T11:51:25.769Z,866.44
2019-01-30T11:52:25.754Z,866.45
2019-01-30T11:53:25.745Z,866.46
2019-01-30T11:54:25.723Z,866.43
2019-01-30T11:55:25.706Z,866.43
2019-01-30T11:56:25.692Z,866.47
2019-01-30T11:57:25.677Z,866.45
2019-01-30T11:58:25.661Z,866.45
2019-01-30T11:59:25.652Z,866.45
2019-01-30T12:00:25.630Z,866.43
2019-01-30T12:01:25.628Z,866.45
2019-01-30T12:02:25.602Z,866.45
2019-01-30T12:03:25.584Z,866.45
2019-01-30T12:04:25.570Z,866.47
2019-01-30T12:05:25.560Z,866.49
2019-01-30T12:06:25.543Z,866.47
2019-01-30T12:07:25.534Z,866.51
2019-01-30T12:08:25.509Z,866.49
2019-01-30T12:09:25.511Z,866.52
2019-01-30T12:10:25.487Z,866.51
2019-01-30T12:11:25.470Z,866.51
2019-01-30T12:12:25.454Z,866.50
2019-01-30T12:13:25.437Z,866.52
2019-01-30T12:14:25.426Z,866.51
2019-01-30T12:15:25.402Z,866.46
2019-01-30T12:16:25.395Z,866.48
2019-01-30T12:17:25.380Z,866.45
2019-01-30T12:18:25.365Z,866.49
2019-01-30T12:19:25.353Z,866.43
2019-01-30T12:20:25.336Z,866.44
2019-01-30T12:21:25.324Z,866.43
2019-01-30T12:22:25.304Z,866.41
2019-01-30T12:23:25.297Z,866.41
2019-01-30T12:24:25.280Z,866.39
2019-01-30T12:25:25.267Z,866.37
2019-01-30T12:26:25.250Z,866.39
2019-01-30T12:27:25.238Z,866.41
2019-01-30T12:28:25.222Z,866.45